Nearby METAR Reports

Here are local weather reports from nearby weather stations and airports.

KHFD - Hartford/Brainar, Connecticut, USA
Distance from station: NE 5mi, 8km
Updated: Wed, 05/23/2018 8:53pm EDT
Clear
Clear
 Wind from WNW
Wind: WNW 10 mph , 17 km/h, Gust: 17 mph , 28 km/h
Temperature: 77°F , 25°C
Dew Point: 45°F , 7°C
Humidity: 32%
Barometer: 29.93 inHg , 1013.5 hPa
Clouds: Clear
Visibility: 10 miles , 16 km
2018/05/24 00:53 KHFD 240053Z 29009G15KT 10SM CLR 25/07 A2993 RMK AO2 SLP134 T02500067
KMMK - Meriden, Connecticut, USA
Distance from station: SSW 13mi, 21km
Updated: Wed, 05/23/2018 8:53pm EDT
Clear
Clear
 Wind from calm
Wind: Calm
Temperature: 66°F , 19°C
Dew Point: 54°F , 12°C
Humidity: 64%
Barometer: 29.95 inHg , 1014.2 hPa
Clouds: Clear
Visibility: 10 miles , 16 km
2018/05/24 00:53 KMMK 240053Z AUTO 00000KT 10SM CLR 19/12 A2995 RMK AO2 SLP139 T01890122
 
KBDL - Windsor Locks, Connecticut, USA
Distance from station: N 17mi, 28km
Updated: Wed, 05/23/2018 8:51pm EDT
Clear
Clear
 Wind from NW
Wind: NW 13 mph , 20 km/h
Temperature: 73°F , 23°C
Dew Point: 45°F , 7°C
Humidity: 36%
Barometer: 29.94 inHg , 1013.9 hPa
Clouds: Clear
Visibility: 10 miles , 16 km
2018/05/24 00:51 KBDL 240051Z 31011KT 10SM CLR 23/07 A2994 RMK AO2 SLP136 OCNL LTGICCC DSNT NE CB DSNT NE MOV SE T02330072
KSNC - Chester, Connecticut, USA
Distance from station: SSE 24mi, 38km
Updated: Wed, 05/23/2018 9:35pm EDT
Clear
Clear
 Wind from NW
Wind: NW 7 mph , 11 km/h
Temperature: 70°F , 21°C
Dew Point: 46°F , 8°C
Humidity: 43%
Barometer: 29.97 inHg , 1014.9 hPa
Clouds: Clear
Visibility: 10 miles , 16 km
2018/05/24 01:35 KSNC 240135Z AUTO 31006KT 10SM CLR 21/08 A2997 RMK AO2
 
KOXC - Oxford/Waterbury, Connecticut, USA
Distance from station: SW 26mi, 42km
Updated: Wed, 05/23/2018 8:51pm EDT
Clear
Clear
 Wind from NNW
Wind: NNW 3 mph , 6 km/h
Temperature: 70°F , 21°C
Dew Point: 46°F , 8°C
Humidity: 43%
Barometer: 29.98 inHg , 1015.2 hPa
Clouds: Clear
Visibility: 10 miles , 16 km
2018/05/24 00:51 KOXC 240051Z 33003KT 10SM CLR 21/08 A2998 RMK AO2 SLP162 T02110078
KIJD - Willimantic, Connecticut, USA
Distance from station: E 28mi, 45km
Updated: Wed, 05/23/2018 8:52pm EDT
Clear
Clear
 Wind from WNW
Wind: WNW 6 mph , 9 km/h
Temperature: 73°F , 23°C
Dew Point: 50°F , 10°C
Humidity: 44%
Barometer: 29.93 inHg , 1013.5 hPa
Clouds: Clear
Visibility: 10 miles , 16 km
2018/05/24 00:52 KIJD 240052Z AUTO 29005KT 10SM CLR 23/10 A2993 RMK AO2 SLP131 T02330100
 
KHVN - New Haven/Tweed, Connecticut, USA
Distance from station: SSW 30mi, 48km
Updated: Wed, 05/23/2018 8:53pm EDT
Few Clouds
Few Clouds
 Wind from calm
Wind: Calm
Temperature: 68°F , 20°C
Dew Point: 54°F , 12°C
Humidity: 60%
Barometer: 29.94 inHg , 1013.9 hPa
Clouds: Few Clouds
Visibility: 10 miles , 16 km
Cloud details: Few Clouds 25000 ft
2018/05/24 00:53 KHVN 240053Z 00000KT 10SM FEW250 20/12 A2994 RMK AO2 SLP139 T02000122
KBAF - Westfield, Massachusetts, USA
Distance from station: 0 33mi, 54km
Updated: Wed, 05/23/2018 8:53pm EDT
Clear
Clear
 Wind from NW
Wind: NW 10 mph , 17 km/h
Temperature: 73°F , 23°C
Dew Point: 48°F , 9°C
Humidity: 41%
Barometer: 29.94 inHg , 1013.9 hPa
Clouds: Clear
Visibility: 10 miles , 16 km
2018/05/24 00:53 KBAF 240053Z 31009KT 10SM CLR 23/09 A2994 RMK AO2 SLP137 T02280089
 
KCEF - Chicopee/Westove, Massachusetts, USA
Distance from station: NNE 37mi, 60km
Updated: Wed, 05/23/2018 8:56pm EDT
Partly cloudy
Partly cloudy
 Wind from WNW
Wind: WNW 10 mph , 17 km/h, Gust: 20 mph , 31 km/h
Temperature: 75°F , 24°C
Dew Point: 45°F , 7°C
Humidity: 34%
Barometer: 29.92 inHg , 1013.2 hPa
Clouds: Partly cloudy
Visibility: 10 miles , 16 km
Cloud details: Few Clouds 8000 ft
Partly cloudy 17000 ft
2018/05/24 00:56 KCEF 240056Z 30009G17KT 10SM FEW080 SCT170 24/07 A2992 RMK AO2A SLP137 T02360072
KBDR - Bridgeport, Connecticut, USA
Distance from station: SSW 42mi, 67km
Updated: Wed, 05/23/2018 8:52pm EDT
Clear
Clear
 Wind from W
Wind: W 3 mph , 6 km/h
Temperature: 75°F , 24°C
Dew Point: 54°F , 12°C
Humidity: 47%
Barometer: 29.95 inHg , 1014.2 hPa
Clouds: Clear
Visibility: 10 miles , 16 km
2018/05/24 00:52 KBDR 240052Z 26003KT 10SM CLR 24/12 A2995 RMK AO2 SLP140 T02390117
 
KGON - Groton/New Londo, Connecticut, USA
Distance from station: SE 42mi, 68km
Updated: Wed, 05/23/2018 8:56pm EDT
Clear
Clear
 Wind from calm
Wind: Calm
Temperature: 59°F , 15°C
Dew Point: 55°F , 13°C
Humidity: 88%
Barometer: 29.92 inHg , 1013.2 hPa
Clouds: Clear
Visibility: 10 miles , 16 km
2018/05/24 00:56 KGON 240056Z 00000KT 10SM CLR 15/13 A2992 RMK AO2 SLP131 T01500133
KDXR - Danbury, Connecticut, USA
Distance from station: WSW 45mi, 73km
Updated: Wed, 05/23/2018 8:53pm EDT
Clear
Clear
 Wind from SW
Wind: SW 5 mph , 7 km/h
Temperature: 64°F , 18°C
Dew Point: 55°F , 13°C
Humidity: 73%
Barometer: 29.98 inHg , 1015.2 hPa
Clouds: Clear
Visibility: 10 miles , 16 km
2018/05/24 00:53 KDXR 240053Z 22004KT 10SM CLR 18/13 A2998 RMK AO2 SLP149 T01830128